Time;durP1;ratioP1;P1;durP2;ratioP2;P2;SDS_P1;SDS_P2;PMS_P1;PMS_P2;Temp;Humidity;BMP_temperature;BMP_pressure;BME280_temperature;BME280_humidity;BME280_pressure;Samples;Min_cycle;Max_cycle;Signal;HPM_P1;HPM_P2
2021/08/06 00:00:08;;;;;;;;;4.00;2.00;;;;;;;;3534132;39;112008;-78
2021/08/06 00:02:36;;;;;;;;;1.00;1.00;;;;;;;;3534084;39;113443;-78
2021/08/06 00:05:03;;;;;;;;;3.33;2.33;;;;;;;;3533887;39;113858;-77
2021/08/06 00:07:29;;;;;;;;;1.00;1.00;;;;;;;;3533880;39;112055;-75
2021/08/06 00:09:56;;;;;;;;;2.67;1.00;;;;;;;;3534112;39;113872;-76
2021/08/06 00:12:24;;;;;;;;;2.67;1.00;;;;;;;;3533612;39;113952;-76
2021/08/06 00:14:51;;;;;;;;;2.67;1.00;;;;;;;;3534044;39;112198;-77
2021/08/06 00:17:18;;;;;;;;;1.00;1.00;;;;;;;;3534308;39;113153;-76
2021/08/06 00:19:45;;;;;;;;;3.67;2.00;;;;;;;;3536131;39;113836;-77
2021/08/06 00:22:11;;;;;;;;;2.33;1.33;;;;;;;;3533925;39;113297;-75
2021/08/06 00:24:38;;;;;;;;;3.33;2.67;;;;;;;;3533433;39;113878;-76
2021/08/06 00:27:04;;;;;;;;;1.00;1.00;;;;;;;;3532009;39;111929;-76
2021/08/06 00:29:32;;;;;;;;;3.33;2.00;;;;;;;;3534292;39;113307;-76
2021/08/06 00:32:00;;;;;;;;;2.33;1.00;;;;;;;;3532047;39;113051;-77
2021/08/06 00:34:27;;;;;;;;;2.00;2.00;;;;;;;;3534738;39;112082;-77
2021/08/06 00:36:54;;;;;;;;;5.25;3.00;;;;;;;;3534214;39;113382;-77
2021/08/06 00:39:21;;;;;;;;;2.00;2.00;;;;;;;;3533861;39;113804;-76
2021/08/06 00:41:47;;;;;;;;;2.00;2.00;;;;;;;;3536875;39;112993;-77
2021/08/06 00:44:14;;;;;;;;;1.00;1.00;;;;;;;;3533949;39;114457;-77
2021/08/06 00:46:42;;;;;;;;;1.33;1.33;;;;;;;;3534205;39;111768;-77
2021/08/06 00:49:09;;;;;;;;;4.00;2.00;;;;;;;;3534239;39;113392;-77
2021/08/06 01:18:41;;;;;;;;;2.00;2.00;;;;;;;;3502207;39;112141;-76
2021/08/06 01:21:11;;;;;;;;;2.00;2.00;;;;;;;;3528890;39;113248;-77
2021/08/06 01:23:39;;;;;;;;;4.67;2.00;;;;;;;;3533009;39;113944;-76
2021/08/06 01:26:08;;;;;;;;;1.67;0.67;;;;;;;;3533180;39;111901;-76
2021/08/06 01:28:36;;;;;;;;;3.00;2.00;;;;;;;;3534276;39;112969;-77
2021/08/06 01:31:03;;;;;;;;;2.33;1.00;;;;;;;;3531810;39;111740;-76
2021/08/06 01:33:29;;;;;;;;;4.33;2.00;;;;;;;;3534786;39;113350;-76
2021/08/06 01:35:56;;;;;;;;;1.00;1.00;;;;;;;;3529723;39;114453;-77
2021/08/06 01:38:22;;;;;;;;;1.00;1.00;;;;;;;;3533248;39;112333;-76
2021/08/06 01:40:58;;;;;;;;;3.33;2.00;;;;;;;;3534706;39;113099;-77
2021/08/06 01:43:30;;;;;;;;;2.00;0.75;;;;;;;;3533150;39;114381;-77
2021/08/06 01:46:02;;;;;;;;;5.00;1.00;;;;;;;;3530548;39;112129;-75
2021/08/06 01:48:35;;;;;;;;;3.00;2.00;;;;;;;;3534560;39;113759;-77
2021/08/06 01:51:03;;;;;;;;;2.00;2.00;;;;;;;;3534599;39;113797;-77
2021/08/06 01:53:30;;;;;;;;;2.33;1.00;;;;;;;;3532684;39;112178;-76
2021/08/06 01:55:59;;;;;;;;;3.00;2.00;;;;;;;;3533982;39;113940;-76
2021/08/06 01:58:26;;;;;;;;;2.00;2.00;;;;;;;;3532467;39;113106;-75
2021/08/06 02:00:55;;;;;;;;;3.67;2.00;;;;;;;;3534387;39;113353;-75
2021/08/06 02:03:24;;;;;;;;;2.00;2.00;;;;;;;;3534155;39;113916;-76
2021/08/06 02:05:52;;;;;;;;;2.00;2.00;;;;;;;;3530338;39;112581;-76
2021/08/06 02:08:19;;;;;;;;;3.33;2.00;;;;;;;;3530936;39;113233;-75
2021/08/06 02:10:46;;;;;;;;;2.75;2.00;;;;;;;;3529905;39;113974;-77
2021/08/06 02:13:13;;;;;;;;;3.75;1.25;;;;;;;;3537359;39;112549;-77
2021/08/06 02:15:41;;;;;;;;;2.00;2.00;;;;;;;;3533681;39;113869;-77
2021/08/06 02:18:11;;;;;;;;;3.00;2.00;;;;;;;;3534201;39;111904;-75
2021/08/06 02:20:38;;;;;;;;;1.25;1.25;;;;;;;;3532401;39;113864;-76
2021/08/06 02:23:06;;;;;;;;;1.33;1.00;;;;;;;;3534217;39;113991;-77
2021/08/06 02:25:34;;;;;;;;;1.67;1.67;;;;;;;;3532337;39;112255;-77
2021/08/06 02:28:01;;;;;;;;;2.33;1.00;;;;;;;;3529792;39;113156;-77
2021/08/06 02:30:28;;;;;;;;;1.67;1.00;;;;;;;;3533020;39;113975;-77
2021/08/06 02:32:55;;;;;;;;;2.25;1.50;;;;;;;;3534531;39;111802;-77
2021/08/06 02:35:23;;;;;;;;;1.75;1.75;;;;;;;;3536795;39;113240;-76
2021/08/06 02:37:50;;;;;;;;;1.75;1.75;;;;;;;;3530417;39;112580;-76
2021/08/06 02:40:17;;;;;;;;;1.00;1.00;;;;;;;;3532753;39;113241;-77
2021/08/06 02:42:44;;;;;;;;;1.00;1.00;;;;;;;;3533767;39;113934;-77
2021/08/06 02:45:11;;;;;;;;;1.67;1.00;;;;;;;;3534455;39;112047;-77
2021/08/06 02:47:38;;;;;;;;;2.00;1.00;;;;;;;;3534226;39;114168;-76
2021/08/06 02:50:05;;;;;;;;;2.00;1.00;;;;;;;;3533938;39;113931;-77
2021/08/06 02:52:35;;;;;;;;;2.25;1.25;;;;;;;;3534433;39;111881;-75
2021/08/06 02:55:02;;;;;;;;;3.00;2.00;;;;;;;;3534363;39;113552;-76
2021/08/06 02:57:28;;;;;;;;;5.00;2.00;;;;;;;;3536412;39;113832;-76
2021/08/06 02:59:55;;;;;;;;;1.67;1.00;;;;;;;;3534285;39;113659;-75
2021/08/06 03:02:21;;;;;;;;;2.33;2.00;;;;;;;;3533834;39;114223;-75
2021/08/06 03:05:11;;;;;;;;;1.00;1.00;;;;;;;;3534360;39;111779;-77
2021/08/06 03:07:39;;;;;;;;;3.00;2.00;;;;;;;;3533724;39;113322;-77
2021/08/06 03:10:06;;;;;;;;;3.00;1.75;;;;;;;;3533975;39;113830;-77
2021/08/06 03:12:33;;;;;;;;;1.00;1.00;;;;;;;;3534548;39;111970;-77
2021/08/06 03:15:00;;;;;;;;;4.00;2.00;;;;;;;;3534306;39;113334;-76
2021/08/06 03:17:26;;;;;;;;;2.67;2.67;;;;;;;;3533990;39;114120;-77
2021/08/06 03:19:53;;;;;;;;;3.75;1.75;;;;;;;;3536927;39;112325;-78
2021/08/06 03:22:19;;;;;;;;;2.00;2.00;;;;;;;;3532042;39;113879;-76
2021/08/06 03:24:47;;;;;;;;;2.50;2.00;;;;;;;;3532206;39;111829;-75
2021/08/06 03:27:14;;;;;;;;;3.50;2.00;;;;;;;;3534047;39;113269;-75
2021/08/06 03:29:40;;;;;;;;;2.00;2.00;;;;;;;;3533011;39;114647;-75
2021/08/06 03:32:07;;;;;;;;;4.00;2.00;;;;;;;;3534040;39;112141;-75
2021/08/06 03:34:34;;;;;;;;;2.33;2.00;;;;;;;;3534228;39;113301;-76
2021/08/06 03:37:03;;;;;;;;;3.00;1.33;;;;;;;;3533765;39;113935;-76
2021/08/06 03:39:30;;;;;;;;;3.75;2.75;;;;;;;;3537133;39;112047;-76
2021/08/06 03:41:58;;;;;;;;;2.00;1.00;;;;;;;;3531339;39;112956;-76
2021/08/06 03:44:25;;;;;;;;;1.25;1.25;;;;;;;;3534199;39;111955;-76
2021/08/06 03:46:51;;;;;;;;;1.75;1.00;;;;;;;;3533972;39;113883;-76
2021/08/06 03:49:20;;;;;;;;;2.00;2.00;;;;;;;;3534039;39;113888;-76
2021/08/06 03:51:47;;;;;;;;;2.00;2.00;;;;;;;;3532417;39;111988;-76
2021/08/06 03:54:13;;;;;;;;;2.75;1.00;;;;;;;;3534440;39;113249;-77
2021/08/06 03:56:40;;;;;;;;;3.75;1.75;;;;;;;;3533592;39;114843;-77
2021/08/06 03:59:08;;;;;;;;;3.75;2.75;;;;;;;;3534163;39;112017;-75
2021/08/06 04:01:35;;;;;;;;;2.00;2.00;;;;;;;;3536470;39;113298;-76
2021/08/06 04:04:01;;;;;;;;;3.00;3.00;;;;;;;;3533999;39;112031;-77
2021/08/06 04:06:28;;;;;;;;;3.00;2.00;;;;;;;;3534090;39;113291;-76
2021/08/06 04:08:54;;;;;;;;;4.25;2.75;;;;;;;;3533474;39;113978;-75
2021/08/06 04:11:21;;;;;;;;;5.25;1.75;;;;;;;;3534393;39;111929;-77
2021/08/06 04:13:47;;;;;;;;;1.50;1.00;;;;;;;;3534271;39;113296;-77
2021/08/06 04:16:15;;;;;;;;;3.25;1.75;;;;;;;;3534039;39;114053;-77
2021/08/06 04:18:42;;;;;;;;;4.00;2.25;;;;;;;;3533965;39;111944;-77
2021/08/06 04:21:08;;;;;;;;;2.75;2.00;;;;;;;;3534444;39;113496;-77
2021/08/06 04:23:35;;;;;;;;;1.75;1.00;;;;;;;;3534776;39;113189;-77
2021/08/06 04:26:02;;;;;;;;;1.75;1.75;;;;;;;;3534036;39;113722;-75
2021/08/06 04:28:28;;;;;;;;;8.50;4.00;;;;;;;;3530846;39;113982;-77
2021/08/06 04:30:55;;;;;;;;;2.50;2.50;;;;;;;;3530866;39;112270;-77
2021/08/06 04:33:23;;;;;;;;;3.50;2.00;;;;;;;;3534111;39;113452;-77
2021/08/06 04:35:49;;;;;;;;;3.00;2.00;;;;;;;;3533375;39;113938;-76
2021/08/06 04:38:16;;;;;;;;;5.00;2.25;;;;;;;;3533981;39;111964;-77
2021/08/06 04:40:42;;;;;;;;;3.00;2.75;;;;;;;;3533743;39;114474;-76
2021/08/06 04:43:09;;;;;;;;;2.00;2.00;;;;;;;;3533193;39;114056;-77
2021/08/06 04:45:35;;;;;;;;;3.00;3.00;;;;;;;;3534761;39;112369;-77
2021/08/06 04:48:03;;;;;;;;;2.25;2.25;;;;;;;;3533388;39;113665;-77
2021/08/06 04:50:32;;;;;;;;;2.75;2.00;;;;;;;;3534169;39;111980;-76
2021/08/06 04:52:59;;;;;;;;;2.00;2.00;;;;;;;;3533855;39;113753;-77
2021/08/06 04:55:26;;;;;;;;;3.00;2.00;;;;;;;;3533418;39;113893;-77
2021/08/06 04:57:53;;;;;;;;;2.25;1.50;;;;;;;;3531232;39;113257;-77
2021/08/06 05:00:20;;;;;;;;;5.75;2.00;;;;;;;;3532263;39;113358;-77
2021/08/06 05:02:47;;;;;;;;;2.00;2.00;;;;;;;;3533449;39;114562;-76
2021/08/06 05:05:14;;;;;;;;;3.25;3.00;;;;;;;;3531349;39;112059;-77
2021/08/06 05:07:48;;;;;;;;;4.25;3.00;;;;;;;;3535512;39;113592;-76
2021/08/06 05:10:15;;;;;;;;;3.25;2.00;;;;;;;;3535238;39;112139;-76
2021/08/06 05:12:42;;;;;;;;;7.50;4.00;;;;;;;;3534129;39;113082;-77
2021/08/06 05:15:08;;;;;;;;;4.50;3.25;;;;;;;;3530843;39;114357;-77
2021/08/06 05:17:35;;;;;;;;;9.00;3.50;;;;;;;;3533543;39;111948;-77
2021/08/06 05:20:02;;;;;;;;;7.50;6.75;;;;;;;;3529546;39;113387;-77
2021/08/06 05:22:29;;;;;;;;;3.00;3.00;;;;;;;;3527271;39;113706;-77
2021/08/06 05:24:57;;;;;;;;;3.25;3.25;;;;;;;;3529429;39;112277;-76
2021/08/06 05:27:23;;;;;;;;;2.25;2.25;;;;;;;;3531346;39;113757;-77
2021/08/06 05:29:50;;;;;;;;;4.25;3.00;;;;;;;;3534161;39;112087;-77
2021/08/06 05:32:16;;;;;;;;;3.25;3.25;;;;;;;;3532829;39;113306;-77
2021/08/06 05:34:43;;;;;;;;;7.00;3.00;;;;;;;;3530960;39;114766;-77
2021/08/06 05:37:10;;;;;;;;;4.50;4.00;;;;;;;;3532345;39;113148;-78
2021/08/06 05:39:37;;;;;;;;;4.25;3.25;;;;;;;;3532464;39;113551;-80
2021/08/06 05:42:05;;;;;;;;;3.25;3.25;;;;;;;;3530172;39;113957;-75
2021/08/06 05:44:31;;;;;;;;;3.25;2.50;;;;;;;;3531764;39;112403;-76
2021/08/06 05:46:58;;;;;;;;;5.00;3.00;;;;;;;;3531470;39;113723;-75
2021/08/06 05:49:24;;;;;;;;;3.50;3.00;;;;;;;;3532016;39;113951;-79
2021/08/06 05:51:51;;;;;;;;;3.25;3.25;;;;;;;;3531745;39;113299;-82
2021/08/06 05:54:17;;;;;;;;;2.00;1.25;;;;;;;;3533098;39;112840;-78
2021/08/06 05:56:44;;;;;;;;;4.25;4.00;;;;;;;;3533089;39;112647;-80
2021/08/06 05:59:12;;;;;;;;;4.50;4.00;;;;;;;;3533599;39;113385;-79
2021/08/06 06:01:39;;;;;;;;;4.00;3.00;;;;;;;;3533201;39;113837;-79
2021/08/06 06:04:06;;;;;;;;;2.75;2.75;;;;;;;;3533391;39;113339;-75
2021/08/06 06:06:33;;;;;;;;;4.00;3.00;;;;;;;;3533287;39;113719;-73
2021/08/06 06:09:00;;;;;;;;;8.75;4.25;;;;;;;;3532321;39;113919;-77
2021/08/06 06:11:27;;;;;;;;;6.75;5.50;;;;;;;;3536009;39;112715;-74
2021/08/06 06:13:53;;;;;;;;;3.75;3.75;;;;;;;;3533108;39;114931;-75
2021/08/06 06:16:21;;;;;;;;;7.00;6.00;;;;;;;;3533484;39;112572;-80
2021/08/06 06:18:48;;;;;;;;;5.00;5.00;;;;;;;;3535602;39;113971;-79
2021/08/06 06:21:14;;;;;;;;;4.50;4.50;;;;;;;;3533681;39;114225;-78
2021/08/06 06:23:41;;;;;;;;;9.00;9.00;;;;;;;;3534127;39;111903;-77
2021/08/06 06:26:07;;;;;;;;;7.50;5.00;;;;;;;;3534277;39;113433;-84
2021/08/06 06:28:37;;;;;;;;;9.75;8.50;;;;;;;;3535738;39;116490;-86
2021/08/06 06:31:04;;;;;;;;;7.00;7.00;;;;;;;;3539569;39;111829;-88
2021/08/06 06:33:32;;;;;;;;;5.25;4.00;;;;;;;;3541182;39;114270;-89
2021/08/06 06:35:58;;;;;;;;;9.00;7.50;;;;;;;;3537244;39;112321;-87
2021/08/06 06:38:25;;;;;;;;;8.00;6.75;;;;;;;;3535887;39;114461;-87
2021/08/06 06:40:52;;;;;;;;;7.25;5.75;;;;;;;;3534352;39;114234;-85
2021/08/06 06:43:18;;;;;;;;;5.00;4.00;;;;;;;;3534983;39;111871;-81
2021/08/06 06:45:45;;;;;;;;;7.00;5.00;;;;;;;;3532098;39;113315;-78
2021/08/06 06:48:11;;;;;;;;;8.50;4.50;;;;;;;;3533482;39;113944;-80
2021/08/06 06:50:40;;;;;;;;;5.00;5.00;;;;;;;;3533481;39;111960;-82
2021/08/06 06:53:06;;;;;;;;;6.25;4.50;;;;;;;;3533010;39;114332;-79
2021/08/06 06:55:33;;;;;;;;;7.00;5.00;;;;;;;;3536749;39;113786;-83
2021/08/06 06:58:00;;;;;;;;;7.00;6.00;;;;;;;;3531231;39;113729;-87
2021/08/06 07:00:27;;;;;;;;;6.50;5.00;;;;;;;;3532422;39;114183;-81
2021/08/06 07:02:55;;;;;;;;;8.00;6.00;;;;;;;;3532777;39;114318;-83
2021/08/06 07:05:21;;;;;;;;;5.00;5.00;;;;;;;;3533734;39;113369;-82
2021/08/06 07:07:49;;;;;;;;;7.25;4.75;;;;;;;;3532799;39;114167;-80
2021/08/06 07:10:16;;;;;;;;;6.00;5.00;;;;;;;;3531106;39;111846;-74
2021/08/06 07:12:43;;;;;;;;;6.50;6.00;;;;;;;;3533800;39;113301;-80
2021/08/06 07:15:14;;;;;;;;;5.25;4.25;;;;;;;;3533689;39;113948;-83
2021/08/06 07:17:41;;;;;;;;;6.00;5.00;;;;;;;;3536142;39;111920;-80
2021/08/06 07:20:09;;;;;;;;;3.00;3.00;;;;;;;;3532694;39;113934;-82
2021/08/06 07:22:36;;;;;;;;;7.00;6.00;;;;;;;;3533191;39;112928;-80
2021/08/06 07:25:04;;;;;;;;;4.50;4.00;;;;;;;;3533340;39;114023;-79
2021/08/06 07:27:31;;;;;;;;;4.33;4.33;;;;;;;;3532975;39;115713;-85
2021/08/06 07:29:57;;;;;;;;;3.33;3.33;;;;;;;;3532997;39;112244;-80
2021/08/06 07:32:24;;;;;;;;;6.00;4.50;;;;;;;;3533115;39;113460;-78
2021/08/06 07:34:50;;;;;;;;;4.33;3.00;;;;;;;;3532637;39;113938;-77
2021/08/06 07:37:17;;;;;;;;;6.00;3.67;;;;;;;;3535872;39;112265;-78
2021/08/06 07:39:44;;;;;;;;;4.00;3.00;;;;;;;;3532289;39;113878;-74
2021/08/06 07:42:12;;;;;;;;;5.00;4.00;;;;;;;;3526114;39;113608;-81
2021/08/06 07:44:38;;;;;;;;;3.00;3.00;;;;;;;;3533209;39;114453;-79
2021/08/06 07:47:05;;;;;;;;;5.33;4.00;;;;;;;;3532797;39;114304;-77
2021/08/06 07:49:31;;;;;;;;;3.00;3.00;;;;;;;;3533292;39;112228;-84
2021/08/06 07:51:58;;;;;;;;;3.33;3.33;;;;;;;;3533142;39;113327;-79
2021/08/06 07:54:25;;;;;;;;;4.33;4.33;;;;;;;;3532118;39;113851;-77
2021/08/06 07:56:51;;;;;;;;;5.67;5.67;;;;;;;;3530708;39;112682;-78
2021/08/06 07:59:21;;;;;;;;;7.33;5.00;;;;;;;;3534764;39;113265;-80
2021/08/06 08:01:48;;;;;;;;;4.33;4.00;;;;;;;;3531822;39;111974;-80
2021/08/06 08:04:14;;;;;;;;;4.67;4.67;;;;;;;;3532078;39;117054;-81
2021/08/06 08:06:41;;;;;;;;;7.00;5.00;;;;;;;;3531273;39;113877;-80
2021/08/06 08:09:08;;;;;;;;;4.00;4.00;;;;;;;;3532194;39;112204;-77
2021/08/06 08:11:34;;;;;;;;;3.00;3.00;;;;;;;;3531974;39;112633;-79
2021/08/06 08:14:01;;;;;;;;;7.33;4.67;;;;;;;;3534347;39;113907;-74
2021/08/06 08:16:29;;;;;;;;;5.00;4.00;;;;;;;;3536209;39;113344;-78
2021/08/06 08:18:55;;;;;;;;;3.33;3.33;;;;;;;;3532788;39;113846;-80
2021/08/06 08:21:22;;;;;;;;;5.67;4.33;;;;;;;;3534780;39;114661;-75
2021/08/06 08:23:49;;;;;;;;;3.00;3.00;;;;;;;;3532878;39;113699;-73
2021/08/06 08:26:16;;;;;;;;;5.00;4.00;;;;;;;;3532258;39;113882;-74
2021/08/06 08:28:42;;;;;;;;;6.00;4.67;;;;;;;;3532772;39;112326;-75
2021/08/06 08:31:09;;;;;;;;;4.33;3.67;;;;;;;;3532799;39;113370;-76
2021/08/06 08:33:37;;;;;;;;;6.00;5.00;;;;;;;;3532527;39;113649;-79
2021/08/06 08:36:06;;;;;;;;;9.00;5.67;;;;;;;;3533345;39;112148;-80
2021/08/06 08:38:33;;;;;;;;;5.67;3.00;;;;;;;;3532453;39;113118;-81
2021/08/06 08:41:00;;;;;;;;;5.00;4.00;;;;;;;;3531891;39;113892;-78
2021/08/06 08:43:26;;;;;;;;;4.33;4.33;;;;;;;;3535343;39;112505;-76
2021/08/06 08:45:55;;;;;;;;;5.00;4.00;;;;;;;;3532337;39;114047;-76
2021/08/06 08:48:22;;;;;;;;;5.00;4.00;;;;;;;;3532820;39;112309;-74
2021/08/06 08:50:52;;;;;;;;;3.67;3.67;;;;;;;;3533170;39;113316;-78
2021/08/06 08:53:21;;;;;;;;;4.33;4.00;;;;;;;;3534170;39;113699;-85
2021/08/06 08:55:48;;;;;;;;;4.00;4.00;;;;;;;;3535534;39;112125;-77
2021/08/06 08:58:14;;;;;;;;;5.33;5.33;;;;;;;;3531535;39;113461;-77
2021/08/06 09:00:42;;;;;;;;;5.00;4.67;;;;;;;;3532525;39;114395;-76
2021/08/06 09:03:08;;;;;;;;;3.33;3.33;;;;;;;;3533018;39;111826;-74
2021/08/06 09:05:35;;;;;;;;;5.00;5.00;;;;;;;;3534175;39;113265;-74
2021/08/06 09:08:17;;;;;;;;;5.00;5.00;;;;;;;;3532007;39;111980;-89
2021/08/06 09:10:43;;;;;;;;;5.00;5.00;;;;;;;;3536371;39;113706;-89
2021/08/06 09:13:10;;;;;;;;;6.00;5.00;;;;;;;;3533286;39;113803;-82
2021/08/06 09:15:44;;;;;;;;;3.00;3.00;;;;;;;;3528629;39;112062;-81
2021/08/06 09:18:26;;;;;;;;;5.00;5.00;;;;;;;;3533658;39;113384;-84
2021/08/06 09:20:53;;;;;;;;;7.00;4.67;;;;;;;;3530899;39;113990;-84
2021/08/06 09:23:34;;;;;;;;;7.67;5.33;;;;;;;;3533045;39;112047;-81
2021/08/06 09:26:03;;;;;;;;;6.00;6.00;;;;;;;;3532469;39;113330;-81
2021/08/06 09:28:29;;;;;;;;;6.67;6.67;;;;;;;;3537052;39;113946;-80
2021/08/06 09:31:01;;;;;;;;;7.00;5.00;;;;;;;;3534945;39;113780;-81
2021/08/06 09:33:31;;;;;;;;;6.00;6.00;;;;;;;;3534989;39;113819;-86
2021/08/06 09:36:09;;;;;;;;;7.00;6.00;;;;;;;;3534968;39;112288;-81
2021/08/06 09:38:36;;;;;;;;;8.33;8.33;;;;;;;;3535539;39;113638;-84
2021/08/06 09:41:04;;;;;;;;;9.00;8.33;;;;;;;;3537683;39;113891;-84
2021/08/06 09:43:31;;;;;;;;;9.67;7.33;;;;;;;;3542259;39;112115;-83
2021/08/06 09:45:57;;;;;;;;;8.00;7.00;;;;;;;;3542741;39;112408;-84
2021/08/06 09:48:24;;;;;;;;;6.00;5.00;;;;;;;;3543245;39;113051;-83
2021/08/06 09:50:51;;;;;;;;;10.33;8.00;;;;;;;;3542820;39;112383;-82
2021/08/06 09:53:19;;;;;;;;;6.33;6.33;;;;;;;;3543204;39;112800;-81
2021/08/06 09:55:48;;;;;;;;;8.33;7.33;;;;;;;;3536206;39;111646;-83
2021/08/06 09:58:18;;;;;;;;;8.00;7.33;;;;;;;;3534437;39;113401;-82
2021/08/06 10:00:46;;;;;;;;;5.67;5.67;;;;;;;;3533826;39;114332;-83
2021/08/06 10:03:24;;;;;;;;;7.33;6.00;;;;;;;;3534257;39;112408;-84
2021/08/06 10:06:05;;;;;;;;;7.00;5.33;;;;;;;;3532762;39;113860;-84
2021/08/06 10:08:33;;;;;;;;;6.00;5.00;;;;;;;;3533699;39;112955;-77
2021/08/06 10:11:00;;;;;;;;;7.00;4.33;;;;;;;;3536999;39;111828;-80
2021/08/06 10:13:28;;;;;;;;;5.00;5.00;;;;;;;;3533436;39;114007;-80
2021/08/06 10:15:55;;;;;;;;;8.00;5.67;;;;;;;;3533002;39;112772;-79
2021/08/06 10:18:21;;;;;;;;;6.00;4.67;;;;;;;;3534518;39;113417;-79
2021/08/06 10:20:49;;;;;;;;;4.00;4.00;;;;;;;;3531884;39;113923;-80
2021/08/06 10:23:16;;;;;;;;;5.33;4.00;;;;;;;;3512234;39;112137;-79
2021/08/06 10:25:43;;;;;;;;;6.00;4.00;;;;;;;;3534421;39;113325;-79
2021/08/06 10:28:09;;;;;;;;;7.00;5.00;;;;;;;;3533544;39;114068;-76
2021/08/06 10:30:38;;;;;;;;;5.00;5.00;;;;;;;;3533912;39;111831;-74
2021/08/06 10:33:07;;;;;;;;;5.33;4.00;;;;;;;;3535152;39;113180;-76
2021/08/06 10:35:41;;;;;;;;;7.00;5.00;;;;;;;;3505477;39;122458;-77
2021/08/06 10:38:08;;;;;;;;;5.00;5.00;;;;;;;;3528447;39;113422;-78
2021/08/06 10:41:05;;;;;;;;;4.33;4.33;;;;;;;;3528731;39;113884;-78
2021/08/06 10:43:35;;;;;;;;;5.67;5.33;;;;;;;;3530743;39;111916;-77
2021/08/06 10:46:05;;;;;;;;;6.67;6.00;;;;;;;;3529110;39;113252;-78
2021/08/06 10:48:35;;;;;;;;;5.00;5.00;;;;;;;;3517624;39;113906;-79
2021/08/06 10:51:18;;;;;;;;;5.33;4.00;;;;;;;;3529554;39;112239;-79
2021/08/06 10:53:45;;;;;;;;;5.67;5.33;;;;;;;;3529997;39;113938;-77
2021/08/06 10:56:25;;;;;;;;;4.33;3.67;;;;;;;;3532153;39;113919;-74
2021/08/06 10:58:52;;;;;;;;;4.00;4.00;;;;;;;;3532294;39;113614;-70
2021/08/06 11:01:40;;;;;;;;;7.00;4.67;;;;;;;;3527594;39;113962;-72
2021/08/06 11:04:27;;;;;;;;;5.00;5.00;;;;;;;;3529076;39;112740;-72
2021/08/06 11:06:55;;;;;;;;;4.00;4.00;;;;;;;;3529288;39;114469;-72
2021/08/06 11:09:36;;;;;;;;;4.00;4.00;;;;;;;;3529294;39;113929;-74
2021/08/06 11:12:06;;;;;;;;;3.00;3.00;;;;;;;;3529936;39;111983;-72
2021/08/06 11:14:58;;;;;;;;;5.00;5.00;;;;;;;;3532772;39;112933;-75
2021/08/06 11:17:26;;;;;;;;;5.67;5.00;;;;;;;;3528131;39;114340;-75
2021/08/06 11:19:56;;;;;;;;;7.67;4.00;;;;;;;;3529167;39;112556;-75
2021/08/06 11:22:24;;;;;;;;;3.67;3.67;;;;;;;;3530043;39;114042;-75
2021/08/06 11:24:52;;;;;;;;;8.00;5.67;;;;;;;;3528774;39;112138;-74
2021/08/06 11:27:19;;;;;;;;;4.67;4.33;;;;;;;;3529410;39;113267;-74
2021/08/06 11:29:58;;;;;;;;;6.00;4.00;;;;;;;;3528241;39;114115;-73
2021/08/06 11:32:26;;;;;;;;;5.67;4.33;;;;;;;;3529262;39;112395;-73
2021/08/06 11:34:54;;;;;;;;;4.33;4.00;;;;;;;;3528983;39;113248;-75
2021/08/06 11:37:22;;;;;;;;;3.67;3.67;;;;;;;;3529570;39;114233;-73
2021/08/06 11:40:01;;;;;;;;;4.67;4.00;;;;;;;;3529726;39;112253;-77
2021/08/06 11:42:28;;;;;;;;;4.67;3.67;;;;;;;;3530269;39;113980;-76
2021/08/06 11:44:55;;;;;;;;;4.67;4.67;;;;;;;;3531007;39;111785;-75
2021/08/06 11:47:35;;;;;;;;;5.00;4.00;;;;;;;;3528133;39;113543;-75
2021/08/06 11:50:02;;;;;;;;;4.00;4.00;;;;;;;;3527198;39;114423;-75
2021/08/06 11:52:35;;;;;;;;;4.33;4.33;;;;;;;;3528668;39;112102;-75
2021/08/06 11:55:02;;;;;;;;;4.67;4.67;;;;;;;;3527968;39;113256;-75
2021/08/06 11:57:42;;;;;;;;;4.33;4.33;;;;;;;;3532518;39;114007;-75
2021/08/06 12:00:16;;;;;;;;;5.33;4.00;;;;;;;;3529615;39;111767;-75
2021/08/06 12:02:44;;;;;;;;;4.67;4.33;;;;;;;;3531172;39;113227;-75
2021/08/06 12:05:23;;;;;;;;;4.00;4.00;;;;;;;;3528406;39;111921;-73
2021/08/06 12:07:50;;;;;;;;;5.00;4.00;;;;;;;;3527260;39;112098;-74
2021/08/06 12:10:16;;;;;;;;;6.00;5.67;;;;;;;;3529262;39;114132;-74
2021/08/06 12:12:43;;;;;;;;;5.00;4.00;;;;;;;;3529328;39;112117;-73
2021/08/06 12:15:20;;;;;;;;;5.67;5.00;;;;;;;;3527064;39;113308;-73
2021/08/06 12:17:50;;;;;;;;;5.00;5.00;;;;;;;;3529224;39;115344;-74
2021/08/06 12:20:35;;;;;;;;;4.00;3.00;;;;;;;;3528798;39;112947;-74
2021/08/06 12:23:02;;;;;;;;;3.00;3.00;;;;;;;;3528087;39;113415;-74
2021/08/06 12:25:31;;;;;;;;;6.67;5.67;;;;;;;;3530449;39;114273;-74
2021/08/06 12:27:58;;;;;;;;;5.00;4.00;;;;;;;;3529947;39;113866;-73
2021/08/06 12:30:25;;;;;;;;;4.00;4.00;;;;;;;;3529005;39;114356;-74
2021/08/06 12:32:53;;;;;;;;;5.33;3.67;;;;;;;;3528498;39;112422;-73
2021/08/06 12:35:20;;;;;;;;;4.33;3.00;;;;;;;;3528940;39;113216;-73
2021/08/06 12:37:47;;;;;;;;;3.00;3.00;;;;;;;;3528216;39;114208;-74
2021/08/06 12:40:13;;;;;;;;;3.00;3.00;;;;;;;;3525341;39;112384;-75
2021/08/06 12:42:40;;;;;;;;;4.00;4.00;;;;;;;;3526287;39;113492;-74
2021/08/06 12:45:08;;;;;;;;;4.33;4.00;;;;;;;;3529491;39;114430;-74
2021/08/06 12:47:41;;;;;;;;;4.00;4.00;;;;;;;;3530118;39;111991;-76
2021/08/06 12:50:10;;;;;;;;;4.00;4.00;;;;;;;;3529238;39;114326;-77
2021/08/06 12:52:38;;;;;;;;;4.00;3.00;;;;;;;;3530590;39;112572;-77
2021/08/06 12:55:07;;;;;;;;;4.33;4.33;;;;;;;;3526390;39;113268;-77
2021/08/06 12:57:40;;;;;;;;;3.33;3.00;;;;;;;;3526339;39;113879;-77
2021/08/06 13:00:22;;;;;;;;;5.33;5.33;;;;;;;;3528212;39;112746;-76
2021/08/06 13:03:05;;;;;;;;;5.00;4.33;;;;;;;;3530162;39;113415;-78
2021/08/06 13:05:38;;;;;;;;;5.00;5.00;;;;;;;;3530399;39;114264;-76
2021/08/06 13:08:12;;;;;;;;;3.67;3.67;;;;;;;;3529322;39;111786;-76
2021/08/06 13:10:38;;;;;;;;;3.67;3.00;;;;;;;;3531519;39;113534;-79
2021/08/06 13:13:05;;;;;;;;;4.00;4.00;;;;;;;;3529946;39;112730;-77
2021/08/06 13:15:32;;;;;;;;;4.00;4.00;;;;;;;;3528154;39;113463;-79
2021/08/06 13:17:58;;;;;;;;;4.00;4.00;;;;;;;;3529835;39;113904;-76
2021/08/06 13:20:25;;;;;;;;;4.00;4.00;;;;;;;;3528699;39;111828;-78
2021/08/06 13:22:53;;;;;;;;;5.33;4.00;;;;;;;;3530059;39;113253;-76
2021/08/06 13:25:20;;;;;;;;;5.33;3.67;;;;;;;;3528398;39;114316;-77
2021/08/06 13:27:46;;;;;;;;;2.67;2.67;;;;;;;;3530154;39;112503;-79
2021/08/06 13:30:13;;;;;;;;;5.33;4.33;;;;;;;;3529594;39;113308;-79
2021/08/06 13:32:40;;;;;;;;;4.00;3.00;;;;;;;;3508613;39;114077;-80
2021/08/06 13:35:09;;;;;;;;;4.00;4.00;;;;;;;;3528869;39;113347;-79
2021/08/06 13:37:38;;;;;;;;;3.67;3.67;;;;;;;;3528592;39;114195;-77
2021/08/06 13:40:07;;;;;;;;;7.00;4.00;;;;;;;;3530055;39;112110;-77
2021/08/06 13:42:33;;;;;;;;;3.33;3.33;;;;;;;;3528430;39;113456;-77
2021/08/06 13:45:00;;;;;;;;;4.00;4.00;;;;;;;;3529700;39;113781;-77
2021/08/06 13:47:27;;;;;;;;;6.33;5.00;;;;;;;;3528561;39;112013;-79
2021/08/06 13:49:53;;;;;;;;;5.33;4.67;;;;;;;;3530546;39;113353;-80
2021/08/06 13:52:23;;;;;;;;;5.00;3.33;;;;;;;;3529258;39;113977;-79
2021/08/06 13:54:49;;;;;;;;;4.33;3.00;;;;;;;;3530322;39;113687;-78
2021/08/06 13:57:18;;;;;;;;;4.00;4.00;;;;;;;;3528334;39;114239;-79
2021/08/06 13:59:44;;;;;;;;;4.00;3.00;;;;;;;;3528289;39;112288;-78
2021/08/06 14:02:11;;;;;;;;;2.00;2.00;;;;;;;;3528733;39;114080;-79
2021/08/06 14:04:38;;;;;;;;;2.67;2.67;;;;;;;;3528742;39;112926;-78
2021/08/06 14:07:05;;;;;;;;;4.00;3.00;;;;;;;;3530844;39;113005;-78
2021/08/06 14:09:32;;;;;;;;;5.00;3.00;;;;;;;;3528769;39;113282;-79
2021/08/06 14:11:58;;;;;;;;;3.00;3.00;;;;;;;;3527636;39;115294;-78
2021/08/06 14:14:26;;;;;;;;;3.00;3.00;;;;;;;;3530571;39;111940;-77
2021/08/06 14:16:53;;;;;;;;;3.00;3.00;;;;;;;;3529065;39;113909;-77
2021/08/06 14:19:20;;;;;;;;;2.33;2.00;;;;;;;;3529350;39;112877;-77
2021/08/06 14:21:46;;;;;;;;;3.00;3.00;;;;;;;;3529997;39;113372;-77
2021/08/06 14:24:13;;;;;;;;;2.00;2.00;;;;;;;;3528736;39;114330;-77
2021/08/06 14:26:40;;;;;;;;;2.67;2.67;;;;;;;;3530209;39;112212;-77
2021/08/06 14:29:06;;;;;;;;;3.67;2.67;;;;;;;;3529071;39;113371;-74
2021/08/06 14:31:34;;;;;;;;;3.00;3.00;;;;;;;;3529608;39;114871;-76
2021/08/06 14:34:01;;;;;;;;;4.33;3.33;;;;;;;;3528798;39;111869;-76
2021/08/06 14:36:27;;;;;;;;;2.67;2.67;;;;;;;;3531596;39;112342;-74
2021/08/06 14:38:54;;;;;;;;;4.00;4.00;;;;;;;;3530484;39;112027;-76
2021/08/06 14:41:21;;;;;;;;;2.33;2.00;;;;;;;;3527084;39;115385;-82
2021/08/06 14:43:47;;;;;;;;;2.67;2.67;;;;;;;;3525422;39;115717;-74
2021/08/06 14:46:14;;;;;;;;;4.33;3.33;;;;;;;;3530039;39;111824;-81
2021/08/06 14:48:42;;;;;;;;;3.00;2.00;;;;;;;;3530554;39;114003;-78
2021/08/06 14:51:08;;;;;;;;;3.00;3.00;;;;;;;;3529835;39;113952;-76
2021/08/06 14:53:35;;;;;;;;;2.00;2.00;;;;;;;;3529577;39;112648;-79
2021/08/06 14:56:02;;;;;;;;;1.67;1.67;;;;;;;;3531711;39;113951;-77
2021/08/06 14:58:28;;;;;;;;;2.67;2.00;;;;;;;;3533286;39;113901;-78
2021/08/06 15:00:55;;;;;;;;;3.67;3.00;;;;;;;;3529094;39;116200;-77
2021/08/06 15:03:22;;;;;;;;;3.00;3.00;;;;;;;;3528166;39;114049;-77